createdAt,value
2023-03-16T00:00:44.659Z,68.51
2023-03-16T00:05:53.165Z,68.74
2023-03-16T00:11:00.347Z,69.09
2023-03-16T00:16:08.027Z,69.16
2023-03-16T00:21:15.023Z,69.25
2023-03-16T00:26:22.601Z,69.36
2023-03-16T00:31:30.153Z,69.47
2023-03-16T00:36:38.463Z,69.57
2023-03-16T00:41:45.721Z,69.44
2023-03-16T00:46:53.081Z,69.38
2023-03-16T00:52:00.235Z,69.33
2023-03-16T00:57:07.457Z,69.32
2023-03-16T01:02:15.700Z,69.40
2023-03-16T01:07:23.701Z,69.31
2023-03-16T01:12:31.319Z,69.30
2023-03-16T01:17:38.557Z,69.34
2023-03-16T01:22:46.273Z,69.59
2023-03-16T01:27:53.934Z,69.58
2023-03-16T01:33:01.282Z,69.66
2023-03-16T01:38:09.994Z,69.83
2023-03-16T01:43:21.113Z,69.80
2023-03-16T01:48:30.947Z,69.74
2023-03-16T01:53:39.917Z,69.73
2023-03-16T01:58:48.135Z,69.66
2023-03-16T02:04:02.543Z,69.73
2023-03-16T02:09:11.660Z,69.73
2023-03-16T02:14:18.957Z,69.83
2023-03-16T02:19:35.832Z,70.02
2023-03-16T02:24:43.776Z,70.11
2023-03-16T02:30:12.918Z,70.19
2023-03-16T02:35:27.904Z,70.25
2023-03-16T02:40:36.897Z,70.31
2023-03-16T02:45:52.442Z,70.25
2023-03-16T02:51:01.005Z,70.40
2023-03-16T02:56:09.025Z,70.40
2023-03-16T03:01:17.056Z,70.26
2023-03-16T03:06:25.412Z,70.28
2023-03-16T03:11:33.221Z,70.42
2023-03-16T03:16:40.812Z,70.46
2023-03-16T03:21:48.455Z,70.63
2023-03-16T03:26:55.710Z,70.74
2023-03-16T03:32:03.137Z,70.85
2023-03-16T03:37:11.435Z,70.77
2023-03-16T03:42:20.050Z,70.91
2023-03-16T03:47:27.429Z,70.94
2023-03-16T03:52:34.717Z,70.95
2023-03-16T03:57:42.361Z,70.98
2023-03-16T04:02:50.459Z,71.10
2023-03-16T04:08:12.521Z,71.09
2023-03-16T04:13:20.167Z,71.30
2023-03-16T04:18:27.524Z,71.36
2023-03-16T04:23:34.950Z,71.32
2023-03-16T04:28:43.435Z,71.31
2023-03-16T04:33:54.884Z,71.37
2023-03-16T04:39:02.712Z,71.09
2023-03-16T04:44:10.110Z,71.04
2023-03-16T04:49:17.366Z,71.14
2023-03-16T04:54:25.629Z,71.18
2023-03-16T04:59:33.147Z,71.18
2023-03-16T05:04:57.561Z,71.26
2023-03-16T05:10:05.421Z,71.41
2023-03-16T05:15:14.329Z,71.50
2023-03-16T05:20:23.533Z,71.48
2023-03-16T05:25:32.986Z,71.46
2023-03-16T05:30:45.459Z,71.58
2023-03-16T05:35:58.302Z,71.64
2023-03-16T05:41:06.900Z,71.84
2023-03-16T05:46:30.101Z,71.91
2023-03-16T05:51:38.638Z,71.97
2023-03-16T05:56:46.444Z,72.19
2023-03-16T06:01:55.287Z,72.38
2023-03-16T06:07:02.553Z,72.64
2023-03-16T06:12:10.886Z,72.63
2023-03-16T06:17:20.516Z,72.75
2023-03-16T06:22:28.053Z,72.82
2023-03-16T06:27:35.468Z,72.91
2023-03-16T06:32:52.397Z,73.07
2023-03-16T06:38:00.324Z,72.93
2023-03-16T06:43:17.154Z,72.91
2023-03-16T06:48:24.688Z,72.80
2023-03-16T06:53:32.204Z,72.81
2023-03-16T06:58:39.601Z,72.66
2023-03-16T07:03:47.858Z,72.37
2023-03-16T07:09:01.535Z,72.43
2023-03-16T07:14:10.210Z,72.32
2023-03-16T07:19:17.832Z,72.24
2023-03-16T07:32:17.696Z,71.60
2023-03-16T07:37:26.986Z,71.54
2023-03-16T07:42:36.809Z,71.47
2023-03-16T07:47:49.173Z,71.30
2023-03-16T07:53:06.556Z,70.83
2023-03-16T07:58:15.651Z,70.96
2023-03-16T08:03:23.851Z,71.14
2023-03-16T08:08:31.788Z,71.04
2023-03-16T08:13:37.613Z,70.65
2023-03-16T08:18:44.923Z,70.63
2023-03-16T08:23:52.814Z,70.86
2023-03-16T08:29:03.603Z,70.89
2023-03-16T08:34:14.047Z,71.08
2023-03-16T08:39:23.665Z,71.96
2023-03-16T08:44:31.262Z,71.39
2023-03-16T08:49:39.558Z,70.48
2023-03-16T08:55:02.456Z,69.97
2023-03-16T09:00:15.625Z,69.71
2023-03-16T09:05:25.638Z,69.72
2023-03-16T09:10:33.359Z,69.95
2023-03-16T09:15:40.755Z,69.97
2023-03-16T09:20:48.142Z,69.93
2023-03-16T09:29:28.292Z,70.16
2023-03-16T09:34:36.807Z,70.25
2023-03-16T09:39:44.244Z,70.18
2023-03-16T09:45:03.515Z,70.24
2023-03-16T09:50:47.740Z,70.11
2023-03-16T09:56:04.900Z,70.01
2023-03-16T10:01:25.454Z,70.06
2023-03-16T10:06:33.524Z,69.94
2023-03-16T10:11:45.378Z,70.23
2023-03-16T10:16:57.215Z,70.12
2023-03-16T10:22:14.319Z,69.93
2023-03-16T10:27:28.460Z,69.87
2023-03-16T10:32:38.685Z,69.83
2023-03-16T10:37:49.349Z,69.77
2023-03-16T10:42:57.022Z,69.78
2023-03-16T10:48:15.698Z,69.80
2023-03-16T10:53:30.973Z,69.74
2023-03-16T10:58:49.207Z,69.82
2023-03-16T11:03:58.643Z,69.72
2023-03-16T11:09:16.940Z,69.89
2023-03-16T11:14:35.270Z,69.81
2023-03-16T11:19:51.871Z,69.85
2023-03-16T11:25:06.675Z,69.89
2023-03-16T11:30:20.801Z,69.69
2023-03-16T11:35:46.542Z,69.82
2023-03-16T11:41:02.874Z,69.68
2023-03-16T11:46:16.948Z,69.71
2023-03-16T11:51:36.902Z,69.76
2023-03-16T11:56:51.252Z,69.67
2023-03-16T12:02:19.368Z,69.64
2023-03-16T12:07:46.592Z,69.64
2023-03-16T12:13:03.366Z,69.67
2023-03-16T12:18:18.210Z,69.92
2023-03-16T12:23:33.011Z,69.92
2023-03-16T12:28:42.324Z,69.64
2023-03-16T12:34:09.965Z,69.55
2023-03-16T12:39:36.536Z,69.54
2023-03-16T12:44:50.269Z,69.53
2023-03-16T12:50:30.274Z,69.46
2023-03-16T12:55:47.258Z,69.58
2023-03-16T13:01:01.005Z,69.33
2023-03-16T13:06:17.951Z,69.40
2023-03-16T13:11:27.190Z,69.41
2023-03-16T13:17:05.628Z,69.45
2023-03-16T13:22:43.199Z,69.53
2023-03-16T13:28:01.677Z,69.37
2023-03-16T13:33:43.827Z,69.14
2023-03-16T13:39:04.474Z,69.05
2023-03-16T13:44:18.798Z,69.01
2023-03-16T13:49:26.261Z,68.99
2023-03-16T13:55:00.143Z,68.94
2023-03-16T14:00:18.374Z,69.07
2023-03-16T14:05:30.870Z,68.88
2023-03-16T14:10:40.513Z,68.82
2023-03-16T14:15:47.986Z,68.95
2023-03-16T14:20:56.602Z,68.89
2023-03-16T14:26:08.131Z,68.72
2023-03-16T14:31:20.982Z,68.50
2023-03-16T14:36:38.527Z,68.36
2023-03-16T14:42:43.490Z,68.23
2023-03-16T14:48:21.735Z,68.01
2023-03-16T14:53:32.034Z,67.74
2023-03-16T14:58:42.304Z,67.57
2023-03-16T15:03:49.523Z,67.42
2023-03-16T15:08:57.443Z,67.26
2023-03-16T15:14:35.786Z,67.21
2023-03-16T15:19:43.298Z,67.10
2023-03-16T15:24:52.677Z,67.03
2023-03-16T15:29:59.994Z,66.93
2023-03-16T15:35:08.130Z,66.62
2023-03-16T15:40:22.512Z,66.57
2023-03-16T15:45:44.645Z,66.39
2023-03-16T15:50:58.683Z,66.25
2023-03-16T15:56:08.771Z,66.05
2023-03-16T16:01:24.230Z,65.97
2023-03-16T16:06:32.043Z,65.97
2023-03-16T16:11:40.319Z,65.77
2023-03-16T16:16:48.450Z,65.47
2023-03-16T16:21:55.635Z,65.54
2023-03-16T16:27:02.793Z,65.59
2023-03-16T16:32:25.027Z,65.42
2023-03-16T16:37:35.906Z,65.42
2023-03-16T16:42:43.346Z,65.32
2023-03-16T16:47:52.598Z,65.18
2023-03-16T16:53:00.212Z,65.10
2023-03-16T16:58:23.560Z,65.12
2023-03-16T17:03:34.154Z,64.95
2023-03-16T17:08:41.725Z,65.06
2023-03-16T17:13:49.509Z,65.01
2023-03-16T17:18:57.704Z,64.88
2023-03-16T17:24:05.032Z,64.95
2023-03-16T17:29:23.238Z,64.80
2023-03-16T17:34:33.592Z,64.78
2023-03-16T17:39:42.223Z,64.71
2023-03-16T17:44:53.936Z,64.84
2023-03-16T17:50:01.258Z,64.93
2023-03-16T17:55:09.993Z,64.92
2023-03-16T18:00:28.839Z,65.00
2023-03-16T18:05:37.492Z,64.97
2023-03-16T18:10:47.482Z,65.08
2023-03-16T18:15:55.983Z,65.07
2023-03-16T18:21:03.358Z,65.02
2023-03-16T18:26:11.953Z,65.00
2023-03-16T18:31:25.855Z,65.00
2023-03-16T18:36:36.995Z,65.05
2023-03-16T18:41:44.874Z,65.05
2023-03-16T18:46:55.168Z,65.26
2023-03-16T18:52:03.196Z,65.27
2023-03-16T18:57:15.881Z,65.32
2023-03-16T19:02:34.748Z,65.40
2023-03-16T19:07:47.176Z,65.47
2023-03-16T19:12:56.852Z,65.60
2023-03-16T19:18:04.388Z,65.78
2023-03-16T19:23:21.911Z,65.75
2023-03-16T19:28:34.062Z,66.12
2023-03-16T19:33:42.296Z,66.25
2023-03-16T19:38:51.202Z,66.19
2023-03-16T19:44:04.111Z,66.20
2023-03-16T19:49:19.921Z,66.17
2023-03-16T19:54:29.691Z,66.35
2023-03-16T19:59:39.561Z,66.26
2023-03-16T20:04:46.747Z,66.36
2023-03-16T20:09:54.604Z,66.39
2023-03-16T20:15:02.065Z,66.39
2023-03-16T20:20:21.924Z,66.43
2023-03-16T20:25:35.384Z,66.49
2023-03-16T20:30:43.811Z,66.72
2023-03-16T20:35:54.570Z,66.89
2023-03-16T20:41:02.736Z,66.83
2023-03-16T20:46:16.367Z,66.85
2023-03-16T20:51:24.945Z,67.01
2023-03-16T20:56:32.917Z,67.06
2023-03-16T21:01:45.294Z,67.06
2023-03-16T21:06:53.766Z,66.97
2023-03-16T21:12:01.319Z,66.97
2023-03-16T21:17:24.651Z,67.20
2023-03-16T21:22:35.267Z,67.15
2023-03-16T21:27:43.828Z,67.29
2023-03-16T21:32:52.512Z,67.33
2023-03-16T21:37:59.981Z,67.41
2023-03-16T21:43:06.631Z,67.42
2023-03-16T21:48:21.409Z,67.64
2023-03-16T21:53:33.558Z,67.81
2023-03-16T21:58:41.740Z,67.79
2023-03-16T22:03:53.410Z,67.95
2023-03-16T22:09:02.822Z,68.12
2023-03-16T22:14:13.097Z,68.09
2023-03-16T22:19:21.270Z,68.08
2023-03-16T22:24:34.857Z,68.24
2023-03-16T22:29:44.991Z,68.33
2023-03-16T22:34:56.333Z,68.14
2023-03-16T22:40:05.086Z,68.11
2023-03-16T22:45:24.080Z,68.12
2023-03-16T22:50:36.340Z,68.45
2023-03-16T22:55:46.168Z,68.63
2023-03-16T23:00:53.998Z,68.78
2023-03-16T23:06:01.739Z,68.83
2023-03-16T23:11:17.404Z,69.07
2023-03-16T23:16:27.544Z,69.28
2023-03-16T23:21:34.857Z,69.30
2023-03-16T23:26:41.974Z,69.35
2023-03-16T23:31:49.253Z,69.68
2023-03-16T23:36:56.288Z,69.72
2023-03-16T23:42:04.062Z,69.94
2023-03-16T23:47:10.964Z,70.06
2023-03-16T23:52:18.169Z,69.87
2023-03-16T23:57:25.702Z,70.16
